Time;durP1;ratioP1;P1;durP2;ratioP2;P2;SDS_P1;SDS_P2;PMS_P1;PMS_P2;Temp;Humidity;BMP_temperature;BMP_pressure;BME280_temperature;BME280_humidity;BME280_pressure;Samples;Min_cycle;Max_cycle;Signal;HPM_P1;HPM_P2
2022/05/21 00:01:55;;;;;;;8.95;2.40;;;;;;;11.52;100.00;97789.41;5089322;28;20024;-81
2022/05/21 00:04:21;;;;;;;11.00;2.78;;;;;;;11.50;100.00;97793.13;5089750;28;20036;-81
2022/05/21 00:06:47;;;;;;;7.82;2.85;;;;;;;11.51;100.00;97786.81;5088995;28;20031;-82
2022/05/21 00:09:13;;;;;;;2.83;2.40;;;;;;;11.49;100.00;97788.72;5089542;28;20024;-82
2022/05/21 00:11:38;;;;;;;6.28;2.40;;;;;;;11.39;100.00;97785.75;5089640;28;20502;-80
2022/05/21 00:14:05;;;;;;;5.35;2.55;;;;;;;11.31;100.00;97782.69;5089955;28;20589;-82
2022/05/21 00:16:30;;;;;;;5.70;2.33;;;;;;;11.27;100.00;97773.97;5089819;28;20503;-82
2022/05/21 00:18:56;;;;;;;3.10;2.00;;;;;;;11.23;100.00;97764.41;5072828;28;20160;-82
2022/05/21 00:21:23;;;;;;;5.70;2.83;;;;;;;11.13;100.00;97762.41;5089426;28;20026;-82
2022/05/21 00:23:50;;;;;;;3.60;2.13;;;;;;;11.10;100.00;97771.47;5089212;28;20027;-81
2022/05/21 00:26:16;;;;;;;5.45;2.47;;;;;;;11.10;100.00;97770.63;5088080;28;20093;-82
2022/05/21 00:28:44;;;;;;;5.78;2.67;;;;;;;11.04;100.00;97753.13;5105890;28;20032;-81
2022/05/21 00:31:11;;;;;;;5.22;2.28;;;;;;;11.05;100.00;97761.97;5072407;28;20132;-81
2022/05/21 00:33:37;;;;;;;4.97;2.38;;;;;;;11.15;100.00;97758.66;5089010;28;20032;-81
2022/05/21 00:36:04;;;;;;;4.35;2.20;;;;;;;11.06;100.00;97756.53;5088645;28;20036;-81
2022/05/21 00:38:30;;;;;;;4.03;2.25;;;;;;;10.99;100.00;97749.84;5090460;28;20093;-81
2022/05/21 00:40:56;;;;;;;4.75;2.17;;;;;;;10.91;100.00;97746.75;5088986;28;20028;-81
2022/05/21 00:43:41;;;;;;;9.52;2.13;;;;;;;10.96;100.00;97755.38;5072256;28;20039;-81
2022/05/21 00:46:16;;;;;;;6.50;2.40;;;;;;;10.97;100.00;97754.44;5089910;28;20019;-80
2022/05/21 00:48:43;;;;;;;5.10;2.10;;;;;;;10.87;100.00;97746.09;5088673;28;20028;-81
2022/05/21 00:51:13;;;;;;;6.05;2.30;;;;;;;10.80;100.00;97754.56;5069904;28;20031;-81
2022/05/21 00:53:40;;;;;;;4.05;2.50;;;;;;;10.70;100.00;97738.22;5104856;28;20077;-81
2022/05/21 00:56:07;;;;;;;6.68;2.75;;;;;;;10.69;100.00;97735.63;5088632;28;20024;-81
2022/05/21 01:01:17;;;;;;;4.97;2.47;;;;;;;10.74;100.00;97754.91;5102172;28;20111;-81
2022/05/21 01:03:44;;;;;;;3.17;2.67;;;;;;;10.72;100.00;97746.13;5088683;28;20028;-81
2022/05/21 01:06:11;;;;;;;13.65;2.80;;;;;;;10.67;100.00;97745.56;5087703;28;20071;-80
2022/05/21 01:08:38;;;;;;;4.38;3.03;;;;;;;10.65;100.00;97732.25;5088312;28;20031;-81
2022/05/21 01:11:07;;;;;;;8.27;3.70;;;;;;;10.67;100.00;97721.47;5088559;28;20035;-80
2022/05/21 01:13:34;;;;;;;7.03;2.97;;;;;;;10.72;100.00;97724.72;5105757;28;20473;-81
2022/05/21 01:16:01;;;;;;;5.35;3.10;;;;;;;10.71;100.00;97726.53;5088473;28;20107;-80
2022/05/21 01:18:26;;;;;;;14.82;3.13;;;;;;;10.68;100.00;97725.84;5090091;28;20131;-81
2022/05/21 01:20:59;;;;;;;6.32;2.88;;;;;;;10.61;100.00;97732.53;5093347;28;20525;-81
2022/05/21 01:23:26;;;;;;;6.60;3.22;;;;;;;10.55;100.00;97731.06;5103491;28;20133;-81
2022/05/21 01:25:52;;;;;;;7.85;3.10;;;;;;;10.54;100.00;97731.19;5092315;28;20052;-82
2022/05/21 01:28:21;;;;;;;7.03;3.30;;;;;;;10.52;100.00;97725.91;5109113;28;20027;-81
2022/05/21 01:30:52;;;;;;;4.32;2.30;;;;;;;10.53;100.00;97729.44;5092345;28;20024;-82
2022/05/21 01:33:21;;;;;;;4.03;2.38;;;;;;;10.40;100.00;97723.13;5102976;28;20127;-81
2022/05/21 01:35:47;;;;;;;6.70;2.30;;;;;;;10.35;100.00;97726.03;5092001;28;20031;-82
2022/05/21 01:38:16;;;;;;;5.60;2.40;;;;;;;10.28;100.00;97717.50;5091623;28;20032;-81
2022/05/21 01:40:42;;;;;;;10.40;2.80;;;;;;;10.28;100.00;97725.53;5091883;28;20040;-81
2022/05/21 01:45:52;;;;;;;4.63;2.50;;;;;;;10.08;100.00;97714.25;5106350;28;20446;-82
2022/05/21 01:48:21;;;;;;;6.88;2.35;;;;;;;10.08;100.00;97719.59;5096065;28;20020;-82
2022/05/21 01:50:48;;;;;;;3.15;2.00;;;;;;;10.00;100.00;97722.69;5091786;28;20020;-82
2022/05/21 01:53:15;;;;;;;4.30;2.78;;;;;;;9.97;100.00;97719.31;5108831;28;20020;-81
2022/05/21 01:55:41;;;;;;;8.82;3.20;;;;;;;9.93;100.00;97712.44;5108565;28;20020;-82
2022/05/21 01:58:06;;;;;;;4.00;2.47;;;;;;;9.89;100.00;97697.53;5091628;28;20051;-82
2022/05/21 02:00:32;;;;;;;4.25;2.72;;;;;;;9.94;100.00;97701.66;5074577;28;20016;-83
2022/05/21 02:02:58;;;;;;;5.68;3.00;;;;;;;9.89;100.00;97706.41;5096064;28;20024;-82
2022/05/21 02:05:23;;;;;;;5.97;3.33;;;;;;;9.76;100.00;97698.22;5091366;28;20132;-82
2022/05/21 02:07:49;;;;;;;9.40;3.20;;;;;;;9.72;100.00;97698.50;5090877;28;20431;-82
2022/05/21 02:10:16;;;;;;;7.18;3.10;;;;;;;9.73;100.00;97689.50;5074387;28;20476;-82
2022/05/21 02:12:41;;;;;;;7.57;2.85;;;;;;;9.65;100.00;97686.41;5091182;28;20103;-83
2022/05/21 02:15:07;;;;;;;4.65;2.97;;;;;;;9.64;100.00;97685.56;5091057;28;20031;-83
2022/05/21 02:17:33;;;;;;;5.65;2.95;;;;;;;9.65;100.00;97689.97;5091108;28;20032;-83
2022/05/21 02:19:59;;;;;;;5.15;2.95;;;;;;;9.62;100.00;97694.59;5092488;28;20028;-83
2022/05/21 02:22:25;;;;;;;5.07;2.95;;;;;;;9.61;100.00;97696.41;5097899;28;20035;-82
2022/05/21 02:24:50;;;;;;;8.98;3.38;;;;;;;9.57;100.00;97704.66;5091131;28;20284;-83
2022/05/21 02:27:16;;;;;;;6.45;3.28;;;;;;;9.56;100.00;97703.81;5074161;28;20099;-82
2022/05/21 02:29:42;;;;;;;7.15;3.20;;;;;;;9.44;100.00;97700.97;5091090;28;20020;-83
2022/05/21 02:32:09;;;;;;;8.30;3.28;;;;;;;9.46;100.00;97707.06;5090930;28;20028;-82
2022/05/21 02:34:35;;;;;;;6.05;3.50;;;;;;;9.39;100.00;97711.00;5092182;28;20406;-82
2022/05/21 02:39:45;;;;;;;6.65;3.45;;;;;;;9.25;100.00;97704.63;5092143;28;20473;-79
2022/05/21 02:44:55;;;;;;;7.38;3.17;;;;;;;9.21;100.00;97696.88;5088146;28;20139;-83
2022/05/21 02:47:22;;;;;;;9.70;3.55;;;;;;;9.17;100.00;97688.16;5090826;28;20043;-82
2022/05/21 02:49:47;;;;;;;5.18;3.45;;;;;;;9.15;100.00;97687.41;5107605;28;20483;-82
2022/05/21 02:52:15;;;;;;;5.60;3.30;;;;;;;9.10;100.00;97681.47;5090686;28;20098;-83
2022/05/21 02:54:41;;;;;;;7.50;3.60;;;;;;;9.10;100.00;97685.91;5090618;28;20435;-82
2022/05/21 02:57:09;;;;;;;10.65;4.00;;;;;;;8.91;100.00;97690.50;5086382;28;20058;-81
2022/05/21 02:59:36;;;;;;;8.40;2.80;;;;;;;8.81;100.00;97692.78;5090482;28;20016;-82
2022/05/21 03:02:03;;;;;;;11.77;2.80;;;;;;;8.82;100.00;97693.66;5072477;28;20491;-82
2022/05/21 03:04:28;;;;;;;6.00;3.30;;;;;;;8.85;100.00;97701.50;5085983;28;20406;-82
2022/05/21 03:06:54;;;;;;;15.48;4.00;;;;;;;8.79;100.00;97694.69;5090344;28;20028;-82
2022/05/21 03:12:03;;;;;;;7.90;3.47;;;;;;;8.81;100.00;97692.78;5087750;28;20039;-81
2022/05/21 03:14:29;;;;;;;16.30;3.55;;;;;;;8.84;100.00;97697.97;5089493;28;20028;-79
2022/05/21 03:16:59;;;;;;;13.18;3.55;;;;;;;8.76;100.00;97684.19;5085745;28;20115;-81
2022/05/21 03:19:26;;;;;;;13.45;3.03;;;;;;;8.76;100.00;97689.53;5090427;28;20023;-82
2022/05/21 03:21:51;;;;;;;5.93;2.90;;;;;;;8.73;100.00;97684.34;5087543;28;20142;-82
2022/05/21 03:24:17;;;;;;;6.53;2.97;;;;;;;8.69;100.00;97685.44;5105349;28;20020;-82
2022/05/21 03:26:43;;;;;;;11.82;3.38;;;;;;;8.66;100.00;97689.13;5089837;28;20028;-82
2022/05/21 03:29:08;;;;;;;7.57;3.10;;;;;;;8.69;100.00;97694.31;5074161;28;20048;-82
2022/05/21 03:31:34;;;;;;;7.72;2.65;;;;;;;8.63;100.00;97691.09;5089897;28;20016;-82
2022/05/21 03:33:59;;;;;;;12.65;3.80;;;;;;;8.64;100.00;97692.81;5089769;28;20024;-83
2022/05/21 03:36:25;;;;;;;5.72;3.42;;;;;;;8.69;100.00;97688.09;5089669;28;20537;-83
2022/05/21 03:38:51;;;;;;;6.15;3.30;;;;;;;8.89;100.00;97690.56;5090126;28;20031;-82
2022/05/21 03:41:17;;;;;;;6.68;3.13;;;;;;;8.93;100.00;97686.81;5072753;28;20051;-82
2022/05/21 03:43:44;;;;;;;9.35;3.38;;;;;;;8.98;100.00;97683.91;5089346;28;20031;-82
2022/05/21 03:46:10;;;;;;;4.57;3.08;;;;;;;9.12;100.00;97698.22;5089705;28;20024;-83
2022/05/21 03:48:35;;;;;;;7.53;3.90;;;;;;;9.18;100.00;97695.22;5090598;28;20506;-82
2022/05/21 03:51:01;;;;;;;8.07;4.10;;;;;;;9.31;100.00;97700.78;5089647;28;20093;-82
2022/05/21 03:53:28;;;;;;;8.65;3.85;;;;;;;9.43;100.00;97697.44;5089668;28;20024;-82
2022/05/21 03:55:54;;;;;;;13.10;4.30;;;;;;;9.46;100.00;97707.94;5073116;28;20024;-82
2022/05/21 03:58:19;;;;;;;10.13;4.15;;;;;;;9.58;100.00;97711.72;5089658;28;20073;-82
2022/05/21 04:00:45;;;;;;;10.88;4.40;;;;;;;9.70;100.00;97719.06;5072476;28;20035;-81
2022/05/21 04:03:11;;;;;;;13.10;4.60;;;;;;;9.67;100.00;97711.22;5103335;28;20035;-81
2022/05/21 04:05:36;;;;;;;15.73;5.28;;;;;;;9.69;100.00;97712.03;5072345;28;20040;-82
2022/05/21 04:08:03;;;;;;;8.00;4.85;;;;;;;9.82;100.00;97713.91;5073045;28;20430;-84
2022/05/21 04:10:29;;;;;;;11.95;4.60;;;;;;;9.92;100.00;97714.25;5090101;28;20059;-82
2022/05/21 04:12:54;;;;;;;10.23;4.30;;;;;;;10.03;100.00;97719.81;5090725;28;20047;-81
2022/05/21 04:15:20;;;;;;;9.75;4.75;;;;;;;10.18;100.00;97708.28;5089882;28;20047;-82
2022/05/21 04:17:46;;;;;;;10.20;4.20;;;;;;;10.29;100.00;97710.34;5089918;28;20031;-82
2022/05/21 04:20:14;;;;;;;8.07;4.50;;;;;;;10.45;100.00;97715.66;5072703;28;20031;-83
2022/05/21 04:22:40;;;;;;;8.73;5.40;;;;;;;10.60;100.00;97712.09;5106088;28;20133;-82
2022/05/21 04:25:06;;;;;;;12.45;5.22;;;;;;;10.73;100.00;97713.09;5089997;28;20028;-82
2022/05/21 04:27:34;;;;;;;7.60;5.22;;;;;;;10.87;100.00;97710.44;5104908;28;20410;-82
2022/05/21 04:30:00;;;;;;;13.20;6.05;;;;;;;11.46;100.00;97711.25;5089274;28;20521;-83
2022/05/21 04:32:26;;;;;;;14.50;5.10;;;;;;;13.38;98.52;97727.88;5087008;28;20055;-82
2022/05/21 04:34:52;;;;;;;12.27;4.90;;;;;;;14.26;86.84;97726.84;5072611;28;20520;-83
2022/05/21 04:37:19;;;;;;;13.13;5.28;;;;;;;13.71;87.63;97730.00;5090178;28;20085;-82
2022/05/21 04:39:45;;;;;;;10.93;5.72;;;;;;;13.25;91.77;97727.88;5089105;28;20101;-82
2022/05/21 04:42:12;;;;;;;14.57;6.25;;;;;;;12.84;95.97;97724.44;5089757;28;20527;-85
2022/05/21 04:44:38;;;;;;;9.93;5.15;;;;;;;12.57;98.69;97726.31;5108171;28;20020;-83
2022/05/21 04:47:05;;;;;;;11.40;4.63;;;;;;;12.40;100.00;97724.75;5089080;28;20028;-83
2022/05/21 04:49:31;;;;;;;12.20;4.88;;;;;;;12.33;100.00;97727.00;5071754;28;20038;-81
2022/05/21 04:51:57;;;;;;;17.00;4.93;;;;;;;12.22;100.00;97718.78;5106022;28;20407;-82
2022/05/21 04:54:23;;;;;;;7.35;4.28;;;;;;;12.64;100.00;97727.63;5073574;28;20097;-84
2022/05/21 04:56:48;;;;;;;14.32;4.57;;;;;;;14.15;90.75;97726.78;5093308;28;20101;-83
2022/05/21 04:59:14;;;;;;;13.10;4.43;;;;;;;16.04;75.97;97723.69;5092980;28;20032;-83
2022/05/21 05:01:43;;;;;;;12.27;4.35;;;;;;;16.22;71.66;97729.41;5094621;28;20480;-83
2022/05/21 05:04:09;;;;;;;24.83;7.97;;;;;;;15.61;75.14;97728.09;5077037;28;20119;-84
2022/05/21 05:06:36;;;;;;;13.68;5.55;;;;;;;15.27;76.26;97721.78;5094013;28;20036;-84
2022/05/21 05:09:02;;;;;;;11.70;4.70;;;;;;;15.28;76.88;97731.59;5092607;28;20020;-85
2022/05/21 05:11:28;;;;;;;9.43;4.78;;;;;;;15.05;77.36;97732.47;5076399;28;20450;-83
2022/05/21 05:13:58;;;;;;;24.98;5.03;;;;;;;14.93;79.05;97738.81;5076165;28;20059;-83
2022/05/21 05:16:24;;;;;;;9.23;4.55;;;;;;;16.53;72.59;97731.31;5092499;28;20070;-82
2022/05/21 05:18:50;;;;;;;19.95;4.70;;;;;;;19.32;60.63;97718.03;5092372;28;20055;-81
2022/05/21 05:21:15;;;;;;;13.57;4.40;;;;;;;21.26;51.23;97706.06;5092053;28;20554;-83
2022/05/21 05:23:41;;;;;;;7.80;4.15;;;;;;;22.06;49.00;97697.63;5092402;28;20482;-83
2022/05/21 05:26:06;;;;;;;12.93;4.82;;;;;;;22.75;47.01;97697.41;5092202;28;20016;-83
2022/05/21 05:28:35;;;;;;;11.80;4.15;;;;;;;23.91;44.20;97691.63;5092066;28;20057;-83
2022/05/21 05:31:03;;;;;;;13.32;4.30;;;;;;;25.71;41.32;97696.78;5091884;28;20097;-83
2022/05/21 05:33:30;;;;;;;8.43;4.28;;;;;;;26.97;37.97;97664.56;5076917;28;20115;-82
2022/05/21 05:35:56;;;;;;;8.02;4.22;;;;;;;26.69;37.48;97658.94;5092391;28;20150;-83
2022/05/21 05:38:25;;;;;;;13.27;4.63;;;;;;;26.61;37.67;97662.63;5075945;28;20515;-84
2022/05/21 05:40:51;;;;;;;7.07;5.28;;;;;;;26.96;37.12;97666.47;5092631;28;20024;-83
2022/05/21 05:43:19;;;;;;;7.80;4.53;;;;;;;28.47;35.01;97665.81;5092183;28;20034;-84
2022/05/21 05:45:45;;;;;;;16.98;5.60;;;;;;;27.34;35.55;97654.19;5092287;28;20024;-84
2022/05/21 05:48:10;;;;;;;9.25;4.85;;;;;;;27.80;35.88;97665.59;5092442;28;20105;-84
2022/05/21 05:50:36;;;;;;;7.95;4.35;;;;;;;28.48;34.79;97648.25;5094058;28;20036;-83
2022/05/21 05:53:06;;;;;;;14.10;5.47;;;;;;;29.62;32.85;97642.81;5092683;28;20159;-84
2022/05/21 05:55:59;;;;;;;15.30;7.95;;;;;;;29.53;32.26;97637.50;5092914;28;20036;-89
2022/05/21 06:01:15;;;;;;;7.45;4.40;;;;;;;28.96;32.81;97632.53;5094228;28;20039;-84
2022/05/21 06:03:42;;;;;;;10.55;5.85;;;;;;;30.75;30.97;97614.75;5095720;28;20439;-84
2022/05/21 06:06:07;;;;;;;19.67;5.55;;;;;;;29.41;32.02;97619.06;5108477;28;20074;-84
2022/05/21 06:08:33;;;;;;;9.15;3.95;;;;;;;27.94;33.45;97623.38;5092629;28;20052;-89
2022/05/21 06:10:59;;;;;;;6.32;3.78;;;;;;;29.08;32.32;97619.00;5092962;28;20107;-85
2022/05/21 06:13:25;;;;;;;10.85;3.70;;;;;;;30.61;30.26;97609.28;5076621;28;20511;-87
2022/05/21 06:15:53;;;;;;;13.18;4.50;;;;;;;31.58;28.72;97586.78;5100062;28;20051;-87
2022/05/21 06:18:22;;;;;;;13.65;4.30;;;;;;;32.08;28.29;97592.28;5106190;28;20100;-90
2022/05/21 06:20:51;;;;;;;4.88;3.65;;;;;;;32.17;28.03;97590.91;5081863;28;20081;-88
2022/05/21 06:23:44;;;;;;;14.07;3.67;;;;;;;32.21;28.30;97583.78;5112430;28;20471;-88
2022/05/21 06:26:13;;;;;;;15.88;4.25;;;;;;;33.34;26.47;97578.44;5091613;28;20031;-87
2022/05/21 06:28:39;;;;;;;8.90;3.50;;;;;;;34.05;26.01;97567.19;5076233;28;20103;-87
2022/05/21 06:31:04;;;;;;;28.15;5.15;;;;;;;33.89;26.22;97565.13;5091094;28;20078;-87
2022/05/21 06:33:30;;;;;;;12.02;4.38;;;;;;;32.76;26.72;97554.16;5075505;28;20089;-87
2022/05/21 06:36:07;;;;;;;54.97;6.95;;;;;;;30.98;29.14;97565.31;5076749;28;20127;-87
2022/05/21 06:38:38;;;;;;;16.52;5.03;;;;;;;31.03;29.31;97558.06;5087908;28;20031;-90
2022/05/21 06:41:03;;;;;;;9.05;4.32;;;;;;;31.15;28.72;97561.81;5094248;28;20484;-88
2022/05/21 06:43:29;;;;;;;12.95;4.30;;;;;;;31.32;28.84;97556.53;5103611;28;20031;-84
2022/05/21 06:45:55;;;;;;;16.17;4.45;;;;;;;32.18;27.93;97557.41;5091684;28;20024;-85
2022/05/21 06:48:20;;;;;;;14.25;5.43;;;;;;;31.05;28.66;97563.34;5089856;28;20035;-84
2022/05/21 06:50:46;;;;;;;11.20;3.80;;;;;;;29.04;30.87;97557.94;5090606;28;20024;-84
2022/05/21 06:53:12;;;;;;;14.10;8.82;;;;;;;29.01;31.07;97554.75;5105056;28;20040;-85
2022/05/21 06:55:39;;;;;;;10.15;4.22;;;;;;;30.03;30.20;97539.41;5090841;28;20035;-85
2022/05/21 06:58:05;;;;;;;16.08;5.68;;;;;;;31.39;29.05;97535.22;5090023;28;20039;-84
2022/05/21 07:00:31;;;;;;;12.15;4.07;;;;;;;32.76;27.40;97526.44;5089515;28;20162;-87
2022/05/21 07:02:56;;;;;;;19.67;4.40;;;;;;;34.27;25.82;97524.63;5092672;28;20024;-86
2022/05/21 07:08:15;;;;;;;16.13;4.30;;;;;;;34.16;25.43;97524.66;5086978;28;20100;-87
2022/05/21 07:10:40;;;;;;;19.63;5.85;;;;;;;35.01;24.62;97516.41;5091107;28;20066;-85
2022/05/21 07:13:06;;;;;;;28.88;3.60;;;;;;;34.12;24.65;97509.56;5074000;28;20032;-83
2022/05/21 07:15:32;;;;;;;5.70;2.50;;;;;;;32.67;25.96;97508.44;5090966;28;20482;-88
2022/05/21 07:18:00;;;;;;;9.50;2.88;;;;;;;33.36;24.63;97505.00;5072800;28;20024;-87
2022/05/21 07:20:27;;;;;;;6.75;2.50;;;;;;;33.44;24.72;97498.25;5090936;28;20379;-87
2022/05/21 07:22:52;;;;;;;18.05;3.78;;;;;;;33.39;24.93;97493.41;5107507;28;20058;-86
2022/05/21 07:25:21;;;;;;;24.15;3.78;;;;;;;33.60;24.35;97492.00;5091698;28;20096;-87
2022/05/21 07:27:47;;;;;;;35.38;4.10;;;;;;;34.23;23.76;97492.06;5107703;28;20447;-86
2022/05/21 07:30:13;;;;;;;6.32;3.20;;;;;;;33.93;23.81;97497.78;5090471;28;20028;-87
2022/05/21 07:32:39;;;;;;;17.45;5.82;;;;;;;34.48;23.84;97498.13;5092310;28;20526;-85
2022/05/21 07:35:11;;;;;;;21.95;5.18;;;;;;;34.48;23.44;97498.13;5092226;28;20094;-85
2022/05/21 07:37:36;;;;;;;16.38;3.83;;;;;;;34.63;23.50;97483.72;5090151;28;20023;-85
2022/05/21 07:40:04;;;;;;;14.25;3.80;;;;;;;35.59;22.52;97480.69;5090264;28;20039;-86
2022/05/21 07:42:30;;;;;;;7.10;4.32;;;;;;;34.97;22.73;97463.19;5108192;28;20024;-86
2022/05/21 07:44:56;;;;;;;8.43;2.38;;;;;;;34.83;22.01;97461.81;5071186;28;20089;-86
2022/05/21 07:47:24;;;;;;;5.80;2.42;;;;;;;35.61;21.46;97453.44;5090076;28;20465;-87
2022/05/21 07:49:56;;;;;;;11.68;3.35;;;;;;;34.41;22.81;97460.44;5073853;28;20134;-87
2022/05/21 07:52:22;;;;;;;5.75;2.75;;;;;;;35.29;22.21;97455.13;5073742;28;20051;-86
2022/05/21 07:54:47;;;;;;;7.80;2.55;;;;;;;34.60;22.90;97456.41;5073942;28;20077;-86
2022/05/21 07:57:16;;;;;;;14.15;7.10;;;;;;;34.80;22.73;97462.31;5090436;28;20029;-87
2022/05/21 07:59:52;;;;;;;9.02;3.13;;;;;;;35.27;22.35;97462.88;5070674;28;20430;-86
2022/05/21 08:02:19;;;;;;;10.82;2.33;;;;;;;36.53;21.50;97447.13;5085483;28;20081;-87
2022/05/21 08:04:46;;;;;;;10.75;2.67;;;;;;;36.93;21.04;97448.38;5107159;28;20065;-87
2022/05/21 08:07:12;;;;;;;3.65;2.30;;;;;;;36.89;21.54;97450.00;5073280;28;20559;-87
2022/05/21 08:09:38;;;;;;;5.10;2.35;;;;;;;36.91;20.65;97435.81;5090676;28;20111;-87
2022/05/21 08:12:12;;;;;;;9.00;2.20;;;;;;;36.88;20.50;97439.97;5073727;28;20415;-87
2022/05/21 08:14:38;;;;;;;6.70;2.20;;;;;;;38.36;20.05;97440.72;5091689;28;20028;-87
2022/05/21 08:17:03;;;;;;;5.00;2.00;;;;;;;37.02;21.99;97445.97;5073789;28;20043;-86
2022/05/21 08:19:29;;;;;;;3.00;2.05;;;;;;;37.83;21.61;97436.25;5107440;28;20054;-87
2022/05/21 08:26:56;;;;;;;6.32;2.00;;;;;;;38.68;20.22;97429.34;5090969;28;20032;-86
2022/05/21 08:27:24;;;;;;;7.28;2.50;;;;;;;40.47;18.24;97418.44;5092739;28;20085;-87
2022/05/21 08:29:49;;;;;;;3.78;1.92;;;;;;;40.04;18.38;97415.28;5095313;28;20028;-87
2022/05/21 08:32:17;;;;;;;12.48;6.25;;;;;;;40.05;19.51;97428.16;5077096;28;20032;-89
2022/05/21 08:34:42;;;;;;;17.77;3.03;;;;;;;39.61;20.24;97423.50;5094533;28;20460;-87
2022/05/21 08:37:08;;;;;;;9.60;2.50;;;;;;;38.58;20.85;97423.72;5096873;28;20028;-86
2022/05/21 08:39:36;;;;;;;10.20;3.83;;;;;;;37.59;21.56;97415.47;5094423;28;20032;-88
2022/05/21 08:42:13;;;;;;;5.18;2.75;;;;;;;36.40;22.76;97418.53;5095303;28;20043;-90
2022/05/21 08:44:47;;;;;;;6.85;2.63;;;;;;;37.52;21.16;97414.84;5094717;28;20034;-91
2022/05/21 08:47:30;;;;;;;11.73;4.10;;;;;;;38.18;20.23;97415.22;5100759;28;20491;-89
2022/05/21 08:50:10;;;;;;;20.35;3.28;;;;;;;38.92;19.70;97407.28;5095017;28;20091;-89
2022/05/21 08:52:51;;;;;;;3.17;2.60;;;;;;;38.30;19.84;97410.22;5090027;28;20035;-88
2022/05/21 08:55:21;;;;;;;3.60;2.85;;;;;;;39.71;19.26;97412.31;5097579;28;20036;-88
2022/05/21 08:57:49;;;;;;;4.38;2.67;;;;;;;41.39;17.53;97408.28;5083279;28;20046;-88
2022/05/21 09:00:33;;;;;;;8.45;2.55;;;;;;;39.81;17.95;97404.69;5080811;28;20470;-88
2022/05/21 09:02:59;;;;;;;9.00;2.28;;;;;;;38.68;18.55;97400.50;5113706;28;20065;-89
2022/05/21 09:05:25;;;;;;;3.58;1.83;;;;;;;38.87;17.31;97396.94;5095184;28;20043;-89
2022/05/21 09:07:54;;;;;;;2.40;2.15;;;;;;;39.91;16.80;97399.06;5078992;28;20036;-89
2022/05/21 09:10:31;;;;;;;5.22;3.95;;;;;;;41.21;16.39;97400.56;5096608;28;20090;-89
2022/05/21 09:13:22;;;;;;;12.10;4.13;;;;;;;40.48;17.42;97397.69;5079240;28;20042;-89
2022/05/21 09:18:33;;;;;;;7.07;2.47;;;;;;;41.44;15.82;97394.19;5095517;28;20046;-89
2022/05/21 09:21:02;;;;;;;2.97;2.28;;;;;;;41.53;16.47;97387.59;5091845;28;20036;-90
2022/05/21 09:23:55;;;;;;;7.47;2.85;;;;;;;40.11;17.19;97397.31;5093783;28;20107;-89
2022/05/21 09:26:29;;;;;;;5.60;2.45;;;;;;;38.60;18.49;97382.34;5076760;28;20044;-90
2022/05/21 09:29:33;;;;;;;5.47;2.30;;;;;;;40.15;17.52;97390.84;5093592;28;20116;-91
2022/05/21 09:32:00;;;;;;;11.43;5.93;;;;;;;40.83;17.11;97394.66;5088755;28;20438;-91
2022/05/21 09:34:34;;;;;;;7.65;4.20;;;;;;;38.95;17.28;97378.72;5075921;28;20108;-90
2022/05/21 09:37:00;;;;;;;3.22;1.75;;;;;;;39.67;15.84;97380.38;5109042;27;20106;-90
2022/05/21 09:39:39;;;;;;;5.07;3.95;;;;;;;40.18;16.24;97389.44;5094821;28;20027;-90
2022/05/21 09:45:26;;;;;;;3.70;1.80;;;;;;;39.62;16.44;97378.41;5094271;28;20522;-88
2022/05/21 09:48:15;;;;;;;3.70;1.52;;;;;;;39.10;17.22;97383.50;5092166;28;20024;-87
2022/05/21 09:51:01;;;;;;;4.97;2.10;;;;;;;37.70;17.84;97378.06;5071992;28;20032;-89
2022/05/21 09:53:32;;;;;;;2.33;1.85;;;;;;;37.67;17.00;97367.44;5069057;28;20028;-88
2022/05/21 09:56:09;;;;;;;6.53;1.95;;;;;;;38.92;18.08;97370.91;5111322;28;20106;-88
2022/05/21 09:58:39;;;;;;;12.75;4.72;;;;;;;40.10;16.86;97370.41;5093654;28;20036;-87
2022/05/21 10:01:06;;;;;;;3.22;2.20;;;;;;;40.30;16.38;97368.31;5093440;28;20434;-85
2022/05/21 10:03:36;;;;;;;2.90;1.67;;;;;;;40.42;15.02;97360.44;5093208;28;20120;-88
2022/05/21 10:06:08;;;;;;;2.40;1.48;;;;;;;40.80;14.00;97347.53;5093734;28;20431;-88
2022/05/21 10:11:30;;;;;;;1.38;1.27;;;;;;;40.81;14.03;97346.41;5099490;28;20137;-88
2022/05/21 10:14:15;;;;;;;2.20;1.88;;;;;;;42.55;14.06;97340.19;5092658;28;20035;-89
2022/05/21 10:17:16;;;;;;;10.85;2.72;;;;;;;43.28;13.77;97338.75;5085543;28;20089;-88
2022/05/21 10:20:00;;;;;;;;;;;;;;;41.41;13.80;97327.38;5087704;28;20039;-89
2022/05/21 10:22:34;;;;;;;2.90;1.85;;;;;;;41.76;13.64;97323.28;5085485;28;20277;-87
2022/05/21 10:25:04;;;;;;;4.78;1.73;;;;;;;42.62;13.04;97328.59;5076421;28;20030;-88
2022/05/21 10:27:48;;;;;;;2.58;1.63;;;;;;;42.41;13.21;97318.78;5094164;28;20484;-88
2022/05/21 10:30:19;;;;;;;1.65;1.50;;;;;;;42.94;13.04;97317.38;5094104;28;20031;-89
2022/05/21 10:33:23;;;;;;;1.67;1.52;;;;;;;42.75;12.39;97308.13;5092228;28;20061;-89
2022/05/21 10:36:04;;;;;;;7.07;1.80;;;;;;;43.40;12.42;97314.59;5091711;28;20020;-89
2022/05/21 10:39:03;;;;;;;4.78;2.50;;;;;;;42.81;13.40;97297.59;5077481;28;20400;-89
2022/05/21 10:42:03;;;;;;;2.65;2.03;;;;;;;43.31;13.25;97304.31;5093451;28;20063;-89
2022/05/21 10:44:47;;;;;;;5.35;2.03;;;;;;;43.28;13.35;97310.59;5092546;28;20067;-89
2022/05/21 10:47:31;;;;;;;4.30;1.40;;;;;;;42.81;13.77;97303.22;5108015;28;20031;-89
2022/05/21 10:50:00;;;;;;;3.50;1.70;;;;;;;43.54;13.54;97303.31;5094218;28;20028;-90
2022/05/21 10:52:38;;;;;;;9.50;1.92;;;;;;;43.71;13.10;97300.72;5092371;28;20050;-90
2022/05/21 10:55:10;;;;;;;1.98;1.50;;;;;;;40.54;14.06;97290.78;5092745;28;20491;-90
2022/05/21 10:57:42;;;;;;;2.78;1.80;;;;;;;40.02;15.04;97282.94;5091489;28;20483;-89
2022/05/21 11:00:13;;;;;;;2.03;1.20;;;;;;;40.15;14.70;97280.69;5092841;28;20042;-88
2022/05/21 11:02:52;;;;;;;2.97;1.30;;;;;;;40.76;14.07;97259.44;5092940;28;20472;-88
2022/05/21 11:05:58;;;;;;;1.20;1.02;;;;;;;41.96;13.76;97256.38;5091244;28;20044;-88
2022/05/21 11:08:42;;;;;;;1.30;1.20;;;;;;;43.25;12.78;97252.88;5092240;28;20031;-89
2022/05/21 11:11:48;;;;;;;1.50;1.40;;;;;;;43.39;12.98;97250.06;5093419;28;20028;-89
2022/05/21 11:14:37;;;;;;;2.70;1.55;;;;;;;43.60;12.93;97251.31;5093075;28;20036;-89
2022/05/21 11:17:36;;;;;;;2.60;1.70;;;;;;;43.86;12.85;97255.31;5094997;28;20082;-89
2022/05/21 11:20:17;;;;;;;4.35;1.58;;;;;;;44.45;12.74;97251.41;5092795;28;20069;-89
2022/05/21 11:22:56;;;;;;;5.70;1.98;;;;;;;43.80;13.63;97244.44;5088387;28;20114;-89
2022/05/21 11:25:39;;;;;;;1.95;1.23;;;;;;;43.77;12.67;97236.63;5091916;28;20046;-88
2022/05/21 11:28:40;;;;;;;1.80;1.40;;;;;;;44.55;12.96;97227.72;5092235;28;20028;-89
2022/05/21 11:31:11;;;;;;;;;;;;;;;45.10;12.81;97231.13;5092624;28;20051;-89
2022/05/21 11:39:12;;;;;;;2.85;1.98;;;;;;;44.67;13.23;97236.47;5092301;28;20043;-89
2022/05/21 11:41:53;;;;;;;3.58;1.88;;;;;;;42.12;14.21;97226.06;5074579;28;20027;-88
2022/05/21 11:47:07;;;;;;;10.93;1.98;;;;;;;41.60;14.93;97229.88;5087279;28;20183;-89
2022/05/21 11:49:41;;;;;;;15.18;2.53;;;;;;;42.30;14.67;97222.41;5090660;28;20036;-88
2022/05/21 11:52:30;;;;;;;4.03;2.80;;;;;;;41.35;15.37;97213.38;5091283;28;20403;-90
2022/05/21 11:54:59;;;;;;;21.48;2.30;;;;;;;40.91;15.36;97205.97;5092266;28;20042;-89
2022/05/21 11:57:38;;;;;;;3.47;1.60;;;;;;;40.61;15.89;97200.63;5076085;28;20032;-89
2022/05/21 12:00:24;;;;;;;2.25;1.58;;;;;;;40.69;16.10;97205.63;5091828;28;20439;-88
2022/05/21 12:05:47;;;;;;;4.43;2.00;;;;;;;41.79;15.99;97210.25;5089203;28;20055;-89
2022/05/21 12:08:23;;;;;;;3.38;2.00;;;;;;;41.37;15.93;97202.66;5092680;28;20039;-88
2022/05/21 12:11:15;;;;;;;3.67;1.92;;;;;;;41.69;16.07;97211.19;5094373;28;20024;-89
2022/05/21 12:14:02;;;;;;;3.50;2.05;;;;;;;41.78;15.90;97212.22;5088862;28;20077;-88
2022/05/21 12:16:29;;;;;;;2.33;1.80;;;;;;;41.55;16.24;97210.28;5091145;28;20043;-88
2022/05/21 12:18:57;;;;;;;6.47;2.65;;;;;;;42.13;16.06;97203.28;5091411;28;20510;-88
2022/05/21 12:21:29;;;;;;;4.32;1.90;;;;;;;42.74;15.57;97202.28;5091410;28;20356;-87
2022/05/21 12:23:58;;;;;;;5.03;2.20;;;;;;;42.71;16.25;97204.88;5090862;28;20020;-89
2022/05/21 12:26:26;;;;;;;3.75;2.10;;;;;;;42.35;16.18;97208.28;5090898;28;20028;-88